createdAt,value
2017-12-28T00:00:46.035Z,2.90
2017-12-28T00:01:46.027Z,3.40
2017-12-28T00:02:46.160Z,3.30
2017-12-28T00:03:46.033Z,4.20
2017-12-28T00:04:46.004Z,3.20
2017-12-28T00:05:46.110Z,3.30
2017-12-28T00:06:45.997Z,3.30
2017-12-28T00:07:45.971Z,4.20
2017-12-28T00:08:45.976Z,3.90
2017-12-28T00:09:45.969Z,3.70
2017-12-28T00:10:45.960Z,3.30
2017-12-28T00:11:46.258Z,3.40
2017-12-28T00:12:46.241Z,3.60
2017-12-28T00:13:45.939Z,4.00
2017-12-28T00:14:45.936Z,3.90
2017-12-28T00:15:46.040Z,4.40
2017-12-28T00:16:45.918Z,5.00
2017-12-28T00:17:45.911Z,3.40
2017-12-28T00:18:45.903Z,3.30
2017-12-28T00:19:45.894Z,3.50
2017-12-28T00:20:45.891Z,3.70
2017-12-28T00:21:45.882Z,3.70
2017-12-28T00:22:46.068Z,3.80
2017-12-28T00:23:45.866Z,3.50
2017-12-28T00:24:45.860Z,4.30
2017-12-28T00:25:45.852Z,4.00
2017-12-28T00:26:45.853Z,5.10
2017-12-28T00:27:45.838Z,3.40
2017-12-28T00:28:45.831Z,3.50
2017-12-28T00:29:45.831Z,3.60
2017-12-28T00:30:45.816Z,4.00
2017-12-28T00:31:45.809Z,3.60
2017-12-28T00:32:45.801Z,3.50
2017-12-28T00:33:45.952Z,3.90
2017-12-28T00:34:45.787Z,3.50
2017-12-28T00:35:45.780Z,3.80
2017-12-28T00:36:46.176Z,4.00
2017-12-28T00:37:45.765Z,3.40
2017-12-28T00:38:45.762Z,3.60
2017-12-28T00:39:45.751Z,3.50
2017-12-28T00:40:45.745Z,4.20
2017-12-28T00:41:45.863Z,4.40
2017-12-28T00:42:45.730Z,4.10
2017-12-28T00:43:45.722Z,3.80
2017-12-28T00:44:45.819Z,3.60
2017-12-28T00:45:45.792Z,4.00
2017-12-28T00:46:45.707Z,4.00
2017-12-28T00:47:45.694Z,3.90
2017-12-28T00:48:45.686Z,4.40
2017-12-28T00:49:45.679Z,3.70
2017-12-28T00:50:45.677Z,4.50
2017-12-28T00:51:45.664Z,5.70
2017-12-28T00:52:45.657Z,4.80
2017-12-28T00:53:45.650Z,5.20
2017-12-28T00:54:45.641Z,3.70
2017-12-28T00:55:45.787Z,4.30
2017-12-28T00:56:45.707Z,4.10
2017-12-28T00:57:45.620Z,4.10
2017-12-28T00:58:45.613Z,4.10
2017-12-28T00:59:45.604Z,5.00
2017-12-28T01:00:45.820Z,4.60
2017-12-28T01:01:45.592Z,6.30
2017-12-28T01:02:45.583Z,5.60
2017-12-28T01:03:45.576Z,6.30
2017-12-28T01:04:45.566Z,6.20
2017-12-28T01:05:45.561Z,5.50
2017-12-28T01:06:45.781Z,6.00
2017-12-28T01:07:45.546Z,5.80
2017-12-28T01:08:45.538Z,5.40
2017-12-28T01:09:45.530Z,5.20
2017-12-28T01:10:45.522Z,5.50
2017-12-28T01:11:45.515Z,5.60
2017-12-28T01:12:45.509Z,6.30
2017-12-28T01:13:45.701Z,5.30
2017-12-28T01:14:45.503Z,4.70
2017-12-28T01:15:45.485Z,5.00
2017-12-28T01:16:45.478Z,4.70
2017-12-28T01:17:45.471Z,4.60
2017-12-28T01:18:45.464Z,4.30
2017-12-28T01:19:45.457Z,4.60
2017-12-28T01:20:45.450Z,4.30
2017-12-28T01:21:45.440Z,5.50
2017-12-28T01:22:45.434Z,4.70
2017-12-28T01:23:45.425Z,5.00
2017-12-28T01:24:45.420Z,4.50
2017-12-28T01:25:45.815Z,5.00
2017-12-28T01:26:45.536Z,4.50
2017-12-28T01:27:45.401Z,4.60
2017-12-28T01:28:45.389Z,3.90
2017-12-28T01:29:45.385Z,4.30
2017-12-28T01:30:45.381Z,3.90
2017-12-28T01:31:45.367Z,4.00
2017-12-28T01:32:45.359Z,3.90
2017-12-28T01:33:45.352Z,4.40
2017-12-28T01:34:45.344Z,4.40
2017-12-28T01:35:45.394Z,4.20
2017-12-28T01:36:45.331Z,4.00
2017-12-28T01:37:45.346Z,4.20
2017-12-28T01:38:45.454Z,4.10
2017-12-28T01:39:45.298Z,4.40
2017-12-28T01:40:45.301Z,4.30
2017-12-28T01:41:45.293Z,3.90
2017-12-28T01:42:45.276Z,4.80
2017-12-28T01:43:45.268Z,4.30
2017-12-28T01:44:45.270Z,4.20
2017-12-28T01:45:45.263Z,4.00
2017-12-28T01:46:45.254Z,4.20
2017-12-28T01:47:45.247Z,4.20
2017-12-28T01:48:45.248Z,4.20
2017-12-28T01:49:45.424Z,3.80
2017-12-28T01:50:45.222Z,4.60
2017-12-28T01:51:45.310Z,4.20
2017-12-28T01:52:45.212Z,4.10
2017-12-28T01:53:45.204Z,4.30
2017-12-28T01:54:45.457Z,4.40
2017-12-28T01:55:45.287Z,4.20
2017-12-28T01:56:45.191Z,3.90
2017-12-28T01:57:45.175Z,4.10
2017-12-28T01:58:45.168Z,4.60
2017-12-28T01:59:45.159Z,4.20
2017-12-28T02:00:45.188Z,4.50
2017-12-28T02:01:45.218Z,4.60
2017-12-28T02:02:45.141Z,4.50
2017-12-28T02:03:45.129Z,3.90
2017-12-28T02:04:45.124Z,4.30
2017-12-28T02:05:45.106Z,4.70
2017-12-28T02:06:45.105Z,4.50
2017-12-28T02:07:45.100Z,4.50
2017-12-28T02:08:45.096Z,4.10
2017-12-28T02:09:45.144Z,4.40
2017-12-28T02:10:45.079Z,4.30
2017-12-28T02:11:45.071Z,4.30
2017-12-28T02:12:45.067Z,5.10
2017-12-28T02:13:45.266Z,4.10
2017-12-28T02:14:45.048Z,3.90
2017-12-28T02:15:45.046Z,4.30
2017-12-28T02:16:45.035Z,4.80
2017-12-28T02:17:45.026Z,4.60
2017-12-28T02:18:45.020Z,4.40
2017-12-28T02:19:45.012Z,4.60
2017-12-28T02:20:45.004Z,4.80
2017-12-28T02:21:44.996Z,4.60
2017-12-28T02:22:44.987Z,4.60
2017-12-28T02:23:44.979Z,4.80
2017-12-28T02:24:44.973Z,4.60
2017-12-28T02:25:44.968Z,5.00
2017-12-28T02:26:44.958Z,4.60
2017-12-28T02:27:44.987Z,4.50
2017-12-28T02:28:45.678Z,4.10
2017-12-28T02:29:44.939Z,4.00
2017-12-28T02:30:44.931Z,4.10
2017-12-28T02:31:44.920Z,4.00
2017-12-28T02:32:44.981Z,3.80
2017-12-28T02:33:44.908Z,4.30
2017-12-28T02:34:44.898Z,4.20
2017-12-28T02:35:44.890Z,4.20
2017-12-28T02:36:44.883Z,4.30
2017-12-28T02:37:44.876Z,4.20
2017-12-28T02:38:44.868Z,3.50
2017-12-28T02:39:44.860Z,4.20
2017-12-28T02:40:44.852Z,3.70
2017-12-28T02:41:44.835Z,3.90
2017-12-28T02:42:44.836Z,5.10
2017-12-28T02:43:44.831Z,4.10
2017-12-28T02:44:44.826Z,4.00
2017-12-28T02:45:44.859Z,4.20
2017-12-28T02:46:44.921Z,3.70
2017-12-28T02:47:45.223Z,4.50
2017-12-28T02:48:44.791Z,4.30
2017-12-28T02:49:44.784Z,4.20
2017-12-28T02:50:44.776Z,4.40
2017-12-28T02:51:44.805Z,4.20
2017-12-28T02:52:44.763Z,3.70
2017-12-28T02:53:44.753Z,3.40
2017-12-28T02:54:44.744Z,3.80
2017-12-28T02:55:44.742Z,3.80
2017-12-28T02:56:44.731Z,3.90
2017-12-28T02:57:44.721Z,3.50
2017-12-28T02:58:45.566Z,3.70
2017-12-28T02:59:44.706Z,4.00
2017-12-28T03:00:44.698Z,4.20
2017-12-28T03:01:44.818Z,3.70
2017-12-28T03:02:44.754Z,3.60
2017-12-28T03:03:44.676Z,4.00
2017-12-28T03:04:45.109Z,3.50
2017-12-28T03:05:45.714Z,4.00
2017-12-28T03:06:44.651Z,3.80
2017-12-28T03:07:44.644Z,3.90
2017-12-28T03:08:44.637Z,4.00
2017-12-28T03:09:44.629Z,3.30
2017-12-28T03:10:44.624Z,4.10
2017-12-28T03:11:44.613Z,3.70
2017-12-28T03:12:44.617Z,3.20
2017-12-28T03:13:44.600Z,3.60
2017-12-28T03:14:44.719Z,3.90
2017-12-28T03:15:44.589Z,3.20
2017-12-28T03:16:44.573Z,3.70
2017-12-28T03:17:44.567Z,3.60
2017-12-28T03:18:44.556Z,3.50
2017-12-28T03:19:44.548Z,3.90
2017-12-28T03:20:44.541Z,4.00
2017-12-28T03:21:44.532Z,4.10
2017-12-28T03:22:44.742Z,4.30
2017-12-28T03:23:44.519Z,4.40
2017-12-28T03:24:44.609Z,4.60
2017-12-28T03:25:44.501Z,5.30
2017-12-28T03:26:44.520Z,5.20
2017-12-28T03:27:44.485Z,5.30
2017-12-28T03:28:44.476Z,5.30
2017-12-28T03:29:44.473Z,5.00
2017-12-28T03:30:44.460Z,5.20
2017-12-28T03:31:44.451Z,5.00
2017-12-28T03:32:44.444Z,5.50
2017-12-28T03:33:44.437Z,5.10
2017-12-28T03:34:44.437Z,5.40
2017-12-28T03:35:44.549Z,5.60
2017-12-28T03:36:44.627Z,5.40
2017-12-28T03:37:44.403Z,5.40
2017-12-28T03:38:44.394Z,5.20
2017-12-28T03:39:44.387Z,5.20
2017-12-28T03:40:44.370Z,5.20
2017-12-28T03:41:44.370Z,4.70
2017-12-28T03:42:44.361Z,4.70
2017-12-28T03:43:44.366Z,4.50
2017-12-28T03:44:44.372Z,4.20
2017-12-28T03:45:44.336Z,5.10
2017-12-28T03:46:44.882Z,4.70
2017-12-28T03:47:44.452Z,4.60
2017-12-28T03:48:44.313Z,4.40
2017-12-28T03:49:44.300Z,4.60
2017-12-28T03:50:44.293Z,4.80
2017-12-28T03:51:44.273Z,4.80
2017-12-28T03:52:44.275Z,5.00
2017-12-28T03:53:44.266Z,4.40
2017-12-28T03:54:44.256Z,5.10
2017-12-28T03:55:44.249Z,4.00
2017-12-28T03:56:44.240Z,4.90
2017-12-28T03:57:44.421Z,4.90
2017-12-28T03:58:44.221Z,4.80
2017-12-28T03:59:44.218Z,5.00
2017-12-28T04:00:44.205Z,5.00
2017-12-28T04:01:44.196Z,5.20
2017-12-28T04:02:44.199Z,4.80
2017-12-28T04:03:44.178Z,4.70
2017-12-28T04:04:44.189Z,4.90
2017-12-28T04:05:44.671Z,5.00
2017-12-28T04:06:44.151Z,5.10
2017-12-28T04:07:44.142Z,4.70
2017-12-28T04:08:44.136Z,4.30
2017-12-28T04:09:44.126Z,4.60
2017-12-28T04:10:44.117Z,5.90
2017-12-28T04:11:44.301Z,5.20
2017-12-28T04:12:44.108Z,6.70
2017-12-28T04:13:44.092Z,6.10
2017-12-28T04:14:44.084Z,5.10
2017-12-28T04:15:44.075Z,5.30
2017-12-28T04:16:44.067Z,5.60
2017-12-28T04:17:44.062Z,5.30
2017-12-28T04:18:44.049Z,6.10
2017-12-28T04:19:44.647Z,5.80
2017-12-28T04:20:44.258Z,5.70
2017-12-28T04:21:44.060Z,6.20
2017-12-28T04:22:44.168Z,5.30
2017-12-28T04:23:44.007Z,5.90
2017-12-28T04:24:43.998Z,5.60
2017-12-28T04:25:43.990Z,7.10
2017-12-28T04:26:43.988Z,8.00
2017-12-28T04:27:43.984Z,5.50
2017-12-28T04:28:44.002Z,6.70
2017-12-28T04:29:43.959Z,6.30
2017-12-28T04:30:43.951Z,6.20
2017-12-28T04:31:43.941Z,6.00
2017-12-28T04:32:43.926Z,6.00
2017-12-28T04:33:43.915Z,5.90
2017-12-28T04:34:44.143Z,5.80
2017-12-28T04:35:44.741Z,6.90
2017-12-28T04:36:43.900Z,6.00
2017-12-28T04:37:43.892Z,5.70
2017-12-28T04:38:43.882Z,7.80
2017-12-28T04:39:43.874Z,7.70
2017-12-28T04:40:43.866Z,5.70
2017-12-28T04:41:43.858Z,6.80
2017-12-28T04:42:43.849Z,6.50
2017-12-28T04:43:43.843Z,7.00
2017-12-28T04:44:43.834Z,6.90
2017-12-28T04:45:43.824Z,6.70
2017-12-28T04:46:43.815Z,6.30
2017-12-28T04:47:43.809Z,7.30
2017-12-28T04:48:43.801Z,7.40
2017-12-28T04:49:43.794Z,7.40
2017-12-28T04:50:43.805Z,7.30
2017-12-28T04:51:43.844Z,6.40
2017-12-28T04:52:43.770Z,6.60
2017-12-28T04:53:43.761Z,7.10
2017-12-28T04:54:43.752Z,7.20
2017-12-28T04:55:43.744Z,8.00
2017-12-28T04:56:43.736Z,6.00
2017-12-28T04:57:43.729Z,7.00
2017-12-28T04:58:43.993Z,6.20
2017-12-28T04:59:43.713Z,9.10
2017-12-28T05:00:43.704Z,7.00
2017-12-28T05:01:43.697Z,6.40
2017-12-28T05:02:43.687Z,7.90
2017-12-28T05:03:43.770Z,8.40
2017-12-28T05:04:43.689Z,6.60
2017-12-28T05:05:43.665Z,8.90
2017-12-28T05:06:43.655Z,7.30
2017-12-28T05:07:43.648Z,11.30
2017-12-28T05:08:43.640Z,8.20
2017-12-28T05:09:43.633Z,7.80
2017-12-28T05:10:43.624Z,7.10
2017-12-28T05:11:43.619Z,5.40
2017-12-28T05:12:43.608Z,6.20
2017-12-28T05:13:43.605Z,6.00
2017-12-28T05:14:43.592Z,5.60
2017-12-28T05:15:43.657Z,7.60
2017-12-28T05:16:43.690Z,4.60
2017-12-28T05:17:43.569Z,4.70
2017-12-28T05:18:43.559Z,4.70
2017-12-28T05:19:43.551Z,4.50
2017-12-28T05:20:43.543Z,5.00
2017-12-28T05:21:43.673Z,3.20
2017-12-28T05:22:43.526Z,2.70
2017-12-28T05:23:43.517Z,3.50
2017-12-28T05:24:43.509Z,4.80
2017-12-28T05:25:43.501Z,2.20
2017-12-28T05:26:43.494Z,3.70
2017-12-28T05:27:43.483Z,3.50
2017-12-28T05:28:43.471Z,3.90
2017-12-28T05:29:43.582Z,3.70
2017-12-28T05:30:43.484Z,4.20
2017-12-28T05:31:43.450Z,3.80
2017-12-28T05:32:43.442Z,4.60
2017-12-28T05:33:43.437Z,2.40
2017-12-28T05:34:43.424Z,3.70
2017-12-28T05:35:43.699Z,3.50
2017-12-28T05:36:43.465Z,3.70
2017-12-28T05:37:43.465Z,4.70
2017-12-28T05:38:43.392Z,3.70
2017-12-28T05:39:43.384Z,3.40
2017-12-28T05:40:43.373Z,3.60
2017-12-28T05:41:43.366Z,3.60
2017-12-28T05:42:43.357Z,3.10
2017-12-28T05:43:43.349Z,3.60
2017-12-28T05:44:43.409Z,2.90
2017-12-28T05:45:43.332Z,3.10
2017-12-28T05:46:43.324Z,3.20
2017-12-28T05:47:43.317Z,3.60
2017-12-28T05:48:43.308Z,2.30
2017-12-28T05:49:43.301Z,3.10
2017-12-28T05:50:43.295Z,5.20
2017-12-28T05:51:43.415Z,2.80
2017-12-28T05:52:43.346Z,1.80
2017-12-28T05:53:43.267Z,2.50
2017-12-28T05:54:43.258Z,2.10
2017-12-28T05:55:43.391Z,2.60
2017-12-28T05:56:43.246Z,2.50
2017-12-28T05:57:43.557Z,3.10
2017-12-28T05:58:43.226Z,3.00
2017-12-28T05:59:43.218Z,2.40
2017-12-28T06:00:43.210Z,3.10
2017-12-28T06:01:43.203Z,3.50
2017-12-28T06:02:43.192Z,3.10
2017-12-28T06:03:43.904Z,3.00
2017-12-28T06:04:43.433Z,2.60
2017-12-28T06:05:43.169Z,2.30
2017-12-28T06:06:43.158Z,2.80
2017-12-28T06:07:43.209Z,2.70
2017-12-28T06:08:43.145Z,3.70
2017-12-28T06:09:43.135Z,2.50
2017-12-28T06:10:43.127Z,2.60
2017-12-28T06:11:43.123Z,3.00
2017-12-28T06:12:43.165Z,2.50
2017-12-28T06:13:43.150Z,3.70
2017-12-28T06:14:43.094Z,2.10
2017-12-28T06:15:43.086Z,2.80
2017-12-28T06:16:43.158Z,4.20
2017-12-28T06:17:45.701Z,4.30
2017-12-28T06:18:43.169Z,2.10
2017-12-28T06:19:43.055Z,3.60
2017-12-28T06:20:43.042Z,2.80
2017-12-28T06:21:43.043Z,2.20
2017-12-28T06:22:43.027Z,2.40
2017-12-28T06:23:43.019Z,3.30
2017-12-28T06:24:43.597Z,5.00
2017-12-28T06:25:43.684Z,4.70
2017-12-28T06:26:42.994Z,4.80
2017-12-28T06:27:42.985Z,4.30
2017-12-28T06:28:43.042Z,9.80
2017-12-28T06:29:42.968Z,11.10
2017-12-28T06:30:42.967Z,8.40
2017-12-28T06:31:42.953Z,7.30
2017-12-28T06:32:42.946Z,5.50
2017-12-28T06:33:43.052Z,4.30
2017-12-28T06:34:42.919Z,6.80
2017-12-28T06:35:42.920Z,6.90
2017-12-28T06:36:42.992Z,5.50
2017-12-28T06:37:43.001Z,5.40
2017-12-28T06:38:42.903Z,5.90
2017-12-28T06:39:42.887Z,5.80
2017-12-28T06:40:42.878Z,5.60
2017-12-28T06:41:42.871Z,6.10
2017-12-28T06:42:43.300Z,5.90
2017-12-28T06:43:42.865Z,5.30
2017-12-28T06:44:44.990Z,7.10
2017-12-28T06:45:42.837Z,6.10
2017-12-28T06:46:42.828Z,7.80
2017-12-28T06:47:42.822Z,5.90
2017-12-28T06:48:42.813Z,5.60
2017-12-28T06:49:43.218Z,7.70
2017-12-28T06:50:42.891Z,7.90
2017-12-28T06:51:42.861Z,6.20
2017-12-28T06:52:42.782Z,6.60
2017-12-28T06:53:42.773Z,9.50
2017-12-28T06:54:42.764Z,7.40
2017-12-28T06:55:42.757Z,8.50
2017-12-28T06:56:42.748Z,6.90
2017-12-28T06:57:42.740Z,7.70
2017-12-28T06:58:42.721Z,9.90
2017-12-28T06:59:42.725Z,8.60
2017-12-28T07:00:42.716Z,12.00
2017-12-28T07:01:42.756Z,8.20
2017-12-28T07:02:42.753Z,7.80
2017-12-28T07:03:42.690Z,10.40
2017-12-28T07:04:42.683Z,9.20
2017-12-28T07:05:42.670Z,10.70
2017-12-28T07:06:42.668Z,8.30
2017-12-28T07:07:42.705Z,9.70
2017-12-28T07:08:42.650Z,11.60
2017-12-28T07:09:42.643Z,8.50
2017-12-28T07:10:42.635Z,9.90
2017-12-28T07:11:42.636Z,6.40
2017-12-28T07:12:42.618Z,8.20
2017-12-28T07:13:42.611Z,8.40
2017-12-28T07:14:42.602Z,8.40
2017-12-28T07:15:42.624Z,9.10
2017-12-28T07:16:42.740Z,10.00
2017-12-28T07:17:42.579Z,9.10
2017-12-28T07:18:42.569Z,10.60
2017-12-28T07:19:42.564Z,8.40
2017-12-28T07:20:42.631Z,7.80
2017-12-28T07:21:42.836Z,9.90
2017-12-28T07:22:42.539Z,10.00
2017-12-28T07:23:42.528Z,10.80
2017-12-28T07:24:42.520Z,7.90
2017-12-28T07:25:42.595Z,12.20
2017-12-28T07:26:42.505Z,11.00
2017-12-28T07:27:42.496Z,9.50
2017-12-28T07:28:42.489Z,10.50
2017-12-28T07:29:42.481Z,9.80
2017-12-28T07:30:42.473Z,8.50
2017-12-28T07:31:42.518Z,9.70
2017-12-28T07:32:42.456Z,10.30
2017-12-28T07:33:42.483Z,8.40
2017-12-28T07:34:42.449Z,8.90
2017-12-28T07:35:42.560Z,10.50
2017-12-28T07:36:42.424Z,8.10
2017-12-28T07:37:42.416Z,7.60
2017-12-28T07:38:42.408Z,8.50
2017-12-28T07:39:42.400Z,10.10
2017-12-28T07:40:42.392Z,7.60
2017-12-28T07:41:42.412Z,9.20
2017-12-28T07:42:42.572Z,7.40
2017-12-28T07:43:42.370Z,8.20
2017-12-28T07:44:42.412Z,13.10
2017-12-28T07:45:42.355Z,8.20
2017-12-28T07:46:42.445Z,8.90
2017-12-28T07:47:42.536Z,7.10
2017-12-28T07:48:44.202Z,8.30
2017-12-28T07:49:42.319Z,9.70
2017-12-28T07:50:42.312Z,7.00
2017-12-28T07:51:42.303Z,9.80
2017-12-28T07:52:42.295Z,9.10
2017-12-28T07:53:42.291Z,9.70
2017-12-28T07:54:42.280Z,9.60
2017-12-28T07:55:42.261Z,8.70
2017-12-28T07:56:42.284Z,8.40
2017-12-28T07:57:42.257Z,12.10
2017-12-28T07:58:42.248Z,8.20
2017-12-28T07:59:42.313Z,12.30
2017-12-28T08:00:42.246Z,9.80
2017-12-28T08:01:42.224Z,9.90
2017-12-28T08:02:42.217Z,9.30
2017-12-28T08:03:42.207Z,9.40
2017-12-28T08:04:42.200Z,9.70
2017-12-28T08:05:42.193Z,7.20
2017-12-28T08:06:42.322Z,8.50
2017-12-28T08:07:42.419Z,11.20
2017-12-28T08:08:42.170Z,10.20
2017-12-28T08:09:42.163Z,10.20
2017-12-28T08:10:42.174Z,10.50
2017-12-28T08:11:42.144Z,9.30
2017-12-28T08:12:42.182Z,7.70
2017-12-28T08:13:42.208Z,9.10
2017-12-28T08:14:42.121Z,7.70
2017-12-28T08:15:42.185Z,6.80
2017-12-28T08:16:42.106Z,6.80
2017-12-28T08:17:42.116Z,6.40
2017-12-28T08:18:42.140Z,7.60
2017-12-28T08:19:42.742Z,9.30
2017-12-28T08:20:42.100Z,7.60
2017-12-28T08:21:42.073Z,6.80
2017-12-28T08:22:42.058Z,8.40
2017-12-28T08:23:42.084Z,7.90
2017-12-28T08:24:42.042Z,10.40
2017-12-28T08:25:42.036Z,7.20
2017-12-28T08:26:42.027Z,8.30
2017-12-28T08:27:42.019Z,9.60
2017-12-28T08:28:42.011Z,12.60
2017-12-28T08:29:41.998Z,7.20
2017-12-28T08:30:41.994Z,11.20
2017-12-28T08:31:43.026Z,6.80
2017-12-28T08:32:41.979Z,8.80
2017-12-28T08:33:41.972Z,9.30
2017-12-28T08:34:41.964Z,10.60
2017-12-28T08:35:41.956Z,8.60
2017-12-28T08:36:41.948Z,8.80
2017-12-28T08:37:41.940Z,9.40
2017-12-28T08:38:41.931Z,8.50
2017-12-28T08:39:41.924Z,9.30
2017-12-28T08:40:41.948Z,8.30
2017-12-28T08:41:41.910Z,9.00
2017-12-28T08:42:41.900Z,6.90
2017-12-28T08:43:42.047Z,9.40
2017-12-28T08:44:41.884Z,9.80
2017-12-28T08:45:41.877Z,7.80
2017-12-28T08:46:41.870Z,7.50
2017-12-28T08:47:41.861Z,7.10
2017-12-28T08:48:41.905Z,8.60
2017-12-28T08:49:41.904Z,8.40
2017-12-28T08:50:41.839Z,11.20
2017-12-28T08:51:41.831Z,11.30
2017-12-28T08:52:41.823Z,11.20
2017-12-28T08:53:42.111Z,13.80
2017-12-28T08:54:41.808Z,13.30
2017-12-28T08:55:41.800Z,10.50
2017-12-28T08:56:41.858Z,10.60
2017-12-28T08:57:41.790Z,9.90
2017-12-28T08:58:41.779Z,13.60
2017-12-28T08:59:41.769Z,12.20
2017-12-28T09:00:41.762Z,9.00
2017-12-28T09:01:41.754Z,8.10
2017-12-28T09:02:41.750Z,9.40
2017-12-28T09:03:41.739Z,8.30
2017-12-28T09:04:41.732Z,8.30
2017-12-28T09:05:42.022Z,9.40
2017-12-28T09:06:41.730Z,9.60
2017-12-28T09:07:41.716Z,7.60
2017-12-28T09:08:41.701Z,9.00
2017-12-28T09:09:41.693Z,9.30
2017-12-28T09:10:41.744Z,8.80
2017-12-28T09:11:41.677Z,10.50
2017-12-28T09:12:41.672Z,10.70
2017-12-28T09:13:41.716Z,8.50
2017-12-28T09:14:41.657Z,8.50
2017-12-28T09:15:41.651Z,8.80
2017-12-28T09:16:41.639Z,12.70
2017-12-28T09:17:41.635Z,10.60
2017-12-28T09:18:41.623Z,8.60
2017-12-28T09:19:41.617Z,7.70
2017-12-28T09:20:41.612Z,7.30
2017-12-28T09:21:41.603Z,6.40
2017-12-28T09:22:41.592Z,6.50
2017-12-28T09:23:41.589Z,9.30
2017-12-28T09:24:41.579Z,9.30
2017-12-28T09:25:41.570Z,7.80
2017-12-28T09:26:41.602Z,7.10
2017-12-28T09:27:41.558Z,6.20
2017-12-28T09:28:41.548Z,6.90
2017-12-28T09:29:41.765Z,7.50
2017-12-28T09:30:41.532Z,5.80
2017-12-28T09:31:41.555Z,5.70
2017-12-28T09:32:41.517Z,6.50
2017-12-28T09:33:41.510Z,6.20
2017-12-28T09:34:41.510Z,5.80
2017-12-28T09:35:41.494Z,7.70
2017-12-28T09:36:41.487Z,7.50
2017-12-28T09:37:41.524Z,7.90
2017-12-28T09:38:41.474Z,5.90
2017-12-28T09:39:41.465Z,8.00
2017-12-28T09:40:41.456Z,5.60
2017-12-28T09:41:41.471Z,6.80
2017-12-28T09:42:41.447Z,7.80
2017-12-28T09:43:41.450Z,8.00
2017-12-28T09:44:41.423Z,6.90
2017-12-28T09:45:41.425Z,7.50
2017-12-28T09:46:41.410Z,6.60
2017-12-28T09:47:41.402Z,6.20
2017-12-28T09:48:41.418Z,5.40
2017-12-28T09:49:41.392Z,7.80
2017-12-28T09:50:41.387Z,9.10
2017-12-28T09:51:41.372Z,7.40
2017-12-28T09:52:41.365Z,5.80
2017-12-28T09:53:41.385Z,4.90
2017-12-28T09:54:41.342Z,5.90
2017-12-28T09:55:41.403Z,3.60
2017-12-28T09:56:41.346Z,4.70
2017-12-28T09:57:41.326Z,5.40
2017-12-28T09:58:41.317Z,6.50
2017-12-28T09:59:41.309Z,5.30
2017-12-28T10:00:41.300Z,8.10
2017-12-28T10:01:41.298Z,6.80
2017-12-28T10:02:41.286Z,6.00
2017-12-28T10:03:41.282Z,4.10
2017-12-28T10:04:41.266Z,6.80
2017-12-28T10:05:41.263Z,4.80
2017-12-28T10:06:41.245Z,5.00
2017-12-28T10:07:41.249Z,5.00
2017-12-28T10:08:41.247Z,5.00
2017-12-28T10:09:41.233Z,6.50
2017-12-28T10:10:41.228Z,4.00
2017-12-28T10:11:41.221Z,4.10
2017-12-28T10:12:41.212Z,4.60
2017-12-28T10:13:41.204Z,3.90
2017-12-28T10:14:41.195Z,4.70
2017-12-28T10:15:41.188Z,4.30
2017-12-28T10:16:41.180Z,4.60
2017-12-28T10:17:41.175Z,4.20
2017-12-28T10:18:41.185Z,4.90
2017-12-28T10:19:41.158Z,3.50
2017-12-28T10:20:41.154Z,7.50
2017-12-28T10:21:41.143Z,4.20
2017-12-28T10:22:41.138Z,3.30
2017-12-28T10:23:41.131Z,4.40
2017-12-28T10:24:41.132Z,4.00
2017-12-28T10:25:41.135Z,5.30
2017-12-28T10:26:41.105Z,4.10
2017-12-28T10:27:41.097Z,4.40
2017-12-28T10:28:41.090Z,3.60
2017-12-28T10:29:41.174Z,2.90
2017-12-28T10:30:41.079Z,2.70
2017-12-28T10:31:41.066Z,3.90
2017-12-28T10:32:41.058Z,3.80
2017-12-28T10:33:41.053Z,3.20
2017-12-28T10:34:41.045Z,5.20
2017-12-28T10:35:41.287Z,5.10
2017-12-28T10:36:41.494Z,3.70
2017-12-28T10:37:41.024Z,3.80
2017-12-28T10:38:41.017Z,4.80
2017-12-28T10:39:41.007Z,4.90
2017-12-28T10:40:41.000Z,3.50
2017-12-28T10:41:41.018Z,4.70
2017-12-28T10:42:40.984Z,5.20
2017-12-28T10:43:40.979Z,4.20
2017-12-28T10:44:40.970Z,6.30
2017-12-28T10:45:40.962Z,4.60
2017-12-28T10:46:40.956Z,5.70
2017-12-28T10:47:40.948Z,5.50
2017-12-28T10:48:40.986Z,6.10
2017-12-28T10:49:40.935Z,4.70
2017-12-28T10:50:40.926Z,5.60
2017-12-28T10:51:40.918Z,5.40
2017-12-28T10:52:40.953Z,4.30
2017-12-28T10:53:40.905Z,3.90
2017-12-28T10:54:40.896Z,4.70
2017-12-28T10:55:40.888Z,4.30
2017-12-28T10:56:40.881Z,4.50
2017-12-28T10:57:40.872Z,5.40
2017-12-28T10:58:40.917Z,6.20
2017-12-28T10:59:41.147Z,5.20
2017-12-28T11:00:40.850Z,4.60
2017-12-28T11:01:40.843Z,5.20
2017-12-28T11:02:40.833Z,4.80
2017-12-28T11:03:40.827Z,3.40
2017-12-28T11:04:40.891Z,5.60
2017-12-28T11:05:41.111Z,3.70
2017-12-28T11:06:40.803Z,4.50
2017-12-28T11:07:40.796Z,4.70
2017-12-28T11:08:40.789Z,7.90
2017-12-28T11:09:40.782Z,4.20
2017-12-28T11:10:40.776Z,4.40
2017-12-28T11:11:40.765Z,3.40
2017-12-28T11:12:41.022Z,3.80
2017-12-28T11:13:44.839Z,2.30
2017-12-28T11:14:40.744Z,4.40
2017-12-28T11:15:42.588Z,4.20
2017-12-28T11:16:40.848Z,4.50
2017-12-28T11:17:41.154Z,4.60
2017-12-28T11:18:40.712Z,7.20
2017-12-28T11:19:40.704Z,7.50
2017-12-28T11:20:40.697Z,4.20
2017-12-28T11:21:40.688Z,6.20
2017-12-28T11:22:40.767Z,4.90
2017-12-28T11:23:40.849Z,6.30
2017-12-28T11:24:40.665Z,4.70
2017-12-28T11:25:40.657Z,7.10
2017-12-28T11:26:40.648Z,4.80
2017-12-28T11:27:40.676Z,6.30
2017-12-28T11:28:40.631Z,7.30
2017-12-28T11:29:40.624Z,7.80
2017-12-28T11:30:40.615Z,8.40
2017-12-28T11:31:41.132Z,7.70
2017-12-28T11:32:40.602Z,5.70
2017-12-28T11:33:40.594Z,7.70
2017-12-28T11:34:40.584Z,9.20
2017-12-28T11:35:40.612Z,8.00
2017-12-28T11:36:41.250Z,7.90
2017-12-28T11:37:40.560Z,6.50
2017-12-28T11:38:40.552Z,4.60
2017-12-28T11:39:40.545Z,9.90
2017-12-28T11:40:40.538Z,6.10
2017-12-28T11:41:40.529Z,5.80
2017-12-28T11:42:40.529Z,7.50
2017-12-28T11:43:40.514Z,9.50
2017-12-28T11:44:40.506Z,7.20
2017-12-28T11:45:40.502Z,8.20
2017-12-28T11:46:40.491Z,5.70
2017-12-28T11:47:40.482Z,6.60
2017-12-28T11:48:40.475Z,6.60
2017-12-28T11:49:40.467Z,8.90
2017-12-28T11:50:40.505Z,8.10
2017-12-28T11:51:40.486Z,6.30
2017-12-28T11:52:40.443Z,7.70
2017-12-28T11:53:40.434Z,8.50
2017-12-28T11:54:40.429Z,8.00
2017-12-28T11:55:40.417Z,8.70
2017-12-28T11:56:40.413Z,6.70
2017-12-28T11:57:40.405Z,9.70
2017-12-28T11:58:40.466Z,9.60
2017-12-28T11:59:40.388Z,8.30
2017-12-28T12:00:40.382Z,10.20
2017-12-28T12:01:40.375Z,9.10
2017-12-28T12:02:40.622Z,8.60
2017-12-28T12:03:40.358Z,6.40
2017-12-28T12:04:40.376Z,9.50
2017-12-28T12:05:40.345Z,7.70
2017-12-28T12:06:40.336Z,7.90
2017-12-28T12:07:40.332Z,11.00
2017-12-28T12:08:40.314Z,10.30
2017-12-28T12:09:40.314Z,8.30
2017-12-28T12:10:40.306Z,7.80
2017-12-28T12:11:40.298Z,9.40
2017-12-28T12:12:40.291Z,11.10
2017-12-28T12:13:40.274Z,10.50
2017-12-28T12:14:41.805Z,7.70
2017-12-28T12:15:40.270Z,6.80
2017-12-28T12:16:40.262Z,7.60
2017-12-28T12:17:40.255Z,6.50
2017-12-28T12:18:40.235Z,7.60
2017-12-28T12:19:40.239Z,7.60
2017-12-28T12:20:40.232Z,6.90
2017-12-28T12:21:40.225Z,9.40
2017-12-28T12:22:40.215Z,9.60
2017-12-28T12:23:40.208Z,8.60
2017-12-28T12:24:40.249Z,9.90
2017-12-28T12:25:40.200Z,10.20
2017-12-28T12:26:40.194Z,7.50
2017-12-28T12:27:40.179Z,8.90
2017-12-28T12:28:40.173Z,8.80
2017-12-28T12:29:40.241Z,7.70
2017-12-28T12:30:40.157Z,10.00
2017-12-28T12:31:40.397Z,9.10
2017-12-28T12:32:40.143Z,8.50
2017-12-28T12:33:40.202Z,8.50
2017-12-28T12:34:40.128Z,8.10
2017-12-28T12:35:40.118Z,9.30
2017-12-28T12:36:40.127Z,7.80
2017-12-28T12:37:40.632Z,6.70
2017-12-28T12:38:40.238Z,7.80
2017-12-28T12:39:40.118Z,7.80
2017-12-28T12:40:40.084Z,8.50
2017-12-28T12:41:40.076Z,7.50
2017-12-28T12:42:40.367Z,8.30
2017-12-28T12:43:40.156Z,7.60
2017-12-28T12:44:40.384Z,8.10
2017-12-28T12:45:40.061Z,7.10
2017-12-28T12:46:40.039Z,8.60
2017-12-28T12:47:40.032Z,6.50
2017-12-28T12:48:40.025Z,5.60
2017-12-28T12:49:40.105Z,4.50
2017-12-28T12:50:40.035Z,6.10
2017-12-28T12:51:41.115Z,8.50
2017-12-28T12:52:41.780Z,6.90
2017-12-28T12:53:40.134Z,6.60
2017-12-28T12:54:40.037Z,9.90
2017-12-28T12:55:39.973Z,5.30
2017-12-28T12:56:39.968Z,7.20
2017-12-28T12:57:39.960Z,5.50
2017-12-28T12:58:39.952Z,6.40
2017-12-28T12:59:39.945Z,4.10
2017-12-28T13:00:39.939Z,4.80
2017-12-28T13:01:39.930Z,7.10
2017-12-28T13:02:39.922Z,6.80
2017-12-28T13:03:40.305Z,5.70
2017-12-28T13:04:39.952Z,5.20
2017-12-28T13:05:39.901Z,5.60
2017-12-28T13:06:39.894Z,4.60
2017-12-28T13:07:39.895Z,5.90
2017-12-28T13:08:39.893Z,6.40
2017-12-28T13:09:39.873Z,4.40
2017-12-28T13:10:39.931Z,5.10
2017-12-28T13:11:39.858Z,6.20
2017-12-28T13:12:39.851Z,5.90
2017-12-28T13:13:39.844Z,4.20
2017-12-28T13:14:39.836Z,4.60
2017-12-28T13:15:39.829Z,4.50
2017-12-28T13:16:39.822Z,4.70